sensor_id;sensor_type;location;lat;lon;timestamp;P1;durP1;ratioP1;P2;durP2;ratioP2
58685;SDS011;44465;53.206;-6.106;2023-06-22T00:01:03;3.90;;;2.83;;
58685;SDS011;44465;53.206;-6.106;2023-06-22T00:03:29;3.25;;;2.65;;
58685;SDS011;44465;53.206;-6.106;2023-06-22T00:05:54;3.67;;;2.40;;
58685;SDS011;44465;53.206;-6.106;2023-06-22T00:08:21;2.75;;;2.35;;
58685;SDS011;44465;53.206;-6.106;2023-06-22T00:10:47;3.67;;;2.40;;
58685;SDS011;44465;53.206;-6.106;2023-06-22T00:13:12;3.33;;;2.75;;
58685;SDS011;44465;53.206;-6.106;2023-06-22T00:15:39;3.72;;;2.63;;
58685;SDS011;44465;53.206;-6.106;2023-06-22T00:18:07;3.42;;;2.30;;
58685;SDS011;44465;53.206;-6.106;2023-06-22T00:20:33;2.83;;;2.40;;
58685;SDS011;44465;53.206;-6.106;2023-06-22T00:23:02;3.80;;;2.33;;
58685;SDS011;44465;53.206;-6.106;2023-06-22T00:25:36;3.85;;;2.50;;
58685;SDS011;44465;53.206;-6.106;2023-06-22T00:28:03;3.03;;;2.53;;
58685;SDS011;44465;53.206;-6.106;2023-06-22T00:30:29;3.70;;;2.45;;
58685;SDS011;44465;53.206;-6.106;2023-06-22T00:35:22;3.38;;;2.88;;
58685;SDS011;44465;53.206;-6.106;2023-06-22T00:37:47;2.28;;;2.08;;
58685;SDS011;44465;53.206;-6.106;2023-06-22T00:40:13;3.33;;;2.58;;
58685;SDS011;44465;53.206;-6.106;2023-06-22T00:42:39;3.20;;;2.60;;
58685;SDS011;44465;53.206;-6.106;2023-06-22T00:45:07;3.67;;;2.25;;
58685;SDS011;44465;53.206;-6.106;2023-06-22T00:47:36;3.42;;;2.70;;
58685;SDS011;44465;53.206;-6.106;2023-06-22T00:50:03;2.67;;;2.25;;
58685;SDS011;44465;53.206;-6.106;2023-06-22T00:52:32;3.25;;;2.70;;
58685;SDS011;44465;53.206;-6.106;2023-06-22T00:55:01;2.53;;;2.33;;
58685;SDS011;44465;53.206;-6.106;2023-06-22T00:57:28;2.47;;;2.20;;
58685;SDS011;44465;53.206;-6.106;2023-06-22T00:59:54;2.20;;;1.90;;
58685;SDS011;44465;53.206;-6.106;2023-06-22T01:02:20;3.28;;;2.60;;
58685;SDS011;44465;53.206;-6.106;2023-06-22T01:04:46;2.92;;;2.50;;
58685;SDS011;44465;53.206;-6.106;2023-06-22T01:12:45;2.50;;;2.30;;
58685;SDS011;44465;53.206;-6.106;2023-06-22T01:18:18;2.70;;;2.30;;
58685;SDS011;44465;53.206;-6.106;2023-06-22T01:20:47;2.92;;;2.13;;
58685;SDS011;44465;53.206;-6.106;2023-06-22T01:23:27;3.38;;;2.65;;
58685;SDS011;44465;53.206;-6.106;2023-06-22T01:28:43;2.55;;;2.35;;
58685;SDS011;44465;53.206;-6.106;2023-06-22T01:31:19;2.70;;;2.00;;
58685;SDS011;44465;53.206;-6.106;2023-06-22T01:33:51;2.60;;;2.08;;
58685;SDS011;44465;53.206;-6.106;2023-06-22T01:36:19;5.13;;;2.33;;
58685;SDS011;44465;53.206;-6.106;2023-06-22T01:38:47;2.30;;;2.10;;
58685;SDS011;44465;53.206;-6.106;2023-06-22T01:41:13;2.72;;;2.17;;
58685;SDS011;44465;53.206;-6.106;2023-06-22T01:43:41;3.97;;;2.28;;
58685;SDS011;44465;53.206;-6.106;2023-06-22T01:46:07;2.47;;;2.10;;
58685;SDS011;44465;53.206;-6.106;2023-06-22T01:48:33;3.42;;;2.30;;
58685;SDS011;44465;53.206;-6.106;2023-06-22T01:51:00;2.33;;;2.13;;
58685;SDS011;44465;53.206;-6.106;2023-06-22T01:53:27;2.90;;;2.38;;
58685;SDS011;44465;53.206;-6.106;2023-06-22T01:55:53;1.67;;;1.58;;
58685;SDS011;44465;53.206;-6.106;2023-06-22T01:58:20;2.65;;;2.10;;
58685;SDS011;44465;53.206;-6.106;2023-06-22T02:00:50;2.20;;;2.00;;
58685;SDS011;44465;53.206;-6.106;2023-06-22T02:03:21;2.20;;;1.98;;
58685;SDS011;44465;53.206;-6.106;2023-06-22T02:06:04;2.88;;;2.33;;
58685;SDS011;44465;53.206;-6.106;2023-06-22T02:08:46;2.47;;;2.13;;
58685;SDS011;44465;53.206;-6.106;2023-06-22T02:11:15;3.35;;;2.10;;
58685;SDS011;44465;53.206;-6.106;2023-06-22T02:13:45;2.08;;;1.83;;
58685;SDS011;44465;53.206;-6.106;2023-06-22T02:16:12;2.25;;;2.00;;
58685;SDS011;44465;53.206;-6.106;2023-06-22T02:18:45;2.10;;;1.85;;
58685;SDS011;44465;53.206;-6.106;2023-06-22T02:21:12;2.55;;;2.20;;
58685;SDS011;44465;53.206;-6.106;2023-06-22T02:23:37;2.53;;;2.30;;
58685;SDS011;44465;53.206;-6.106;2023-06-22T02:26:03;3.22;;;2.50;;
58685;SDS011;44465;53.206;-6.106;2023-06-22T02:28:30;2.30;;;1.70;;
58685;SDS011;44465;53.206;-6.106;2023-06-22T02:30:56;2.47;;;1.92;;
58685;SDS011;44465;53.206;-6.106;2023-06-22T02:33:21;2.70;;;2.33;;
58685;SDS011;44465;53.206;-6.106;2023-06-22T02:35:46;2.00;;;1.90;;
58685;SDS011;44465;53.206;-6.106;2023-06-22T02:38:14;2.80;;;2.17;;
58685;SDS011;44465;53.206;-6.106;2023-06-22T02:40:39;2.20;;;2.00;;
58685;SDS011;44465;53.206;-6.106;2023-06-22T02:43:05;2.70;;;2.05;;
58685;SDS011;44465;53.206;-6.106;2023-06-22T02:45:30;2.10;;;1.90;;
58685;SDS011;44465;53.206;-6.106;2023-06-22T02:47:56;2.55;;;2.30;;
58685;SDS011;44465;53.206;-6.106;2023-06-22T02:50:23;3.17;;;1.83;;
58685;SDS011;44465;53.206;-6.106;2023-06-22T02:52:48;2.15;;;1.70;;
58685;SDS011;44465;53.206;-6.106;2023-06-22T02:55:14;2.15;;;1.95;;
58685;SDS011;44465;53.206;-6.106;2023-06-22T02:57:42;1.85;;;1.75;;
58685;SDS011;44465;53.206;-6.106;2023-06-22T03:00:09;1.95;;;1.83;;
58685;SDS011;44465;53.206;-6.106;2023-06-22T03:02:43;2.28;;;2.00;;
58685;SDS011;44465;53.206;-6.106;2023-06-22T03:05:10;2.40;;;2.20;;
58685;SDS011;44465;53.206;-6.106;2023-06-22T03:07:41;2.28;;;1.92;;
58685;SDS011;44465;53.206;-6.106;2023-06-22T03:10:11;2.20;;;2.00;;
58685;SDS011;44465;53.206;-6.106;2023-06-22T03:12:39;2.03;;;1.60;;
58685;SDS011;44465;53.206;-6.106;2023-06-22T03:15:08;2.55;;;2.13;;
58685;SDS011;44465;53.206;-6.106;2023-06-22T03:17:36;2.50;;;1.65;;
58685;SDS011;44465;53.206;-6.106;2023-06-22T03:20:03;2.47;;;1.90;;
58685;SDS011;44465;53.206;-6.106;2023-06-22T03:22:40;1.90;;;1.67;;
58685;SDS011;44465;53.206;-6.106;2023-06-22T03:25:08;2.10;;;1.90;;
58685;SDS011;44465;53.206;-6.106;2023-06-22T03:27:43;2.42;;;2.22;;
58685;SDS011;44465;53.206;-6.106;2023-06-22T03:30:13;2.63;;;2.08;;
58685;SDS011;44465;53.206;-6.106;2023-06-22T03:32:38;2.13;;;1.95;;
58685;SDS011;44465;53.206;-6.106;2023-06-22T03:35:05;2.05;;;1.80;;
58685;SDS011;44465;53.206;-6.106;2023-06-22T03:37:33;1.73;;;1.63;;
58685;SDS011;44465;53.206;-6.106;2023-06-22T03:39:59;3.15;;;2.15;;
58685;SDS011;44465;53.206;-6.106;2023-06-22T03:42:25;2.00;;;1.90;;
58685;SDS011;44465;53.206;-6.106;2023-06-22T03:44:51;2.35;;;2.10;;
58685;SDS011;44465;53.206;-6.106;2023-06-22T03:47:17;2.10;;;2.00;;
58685;SDS011;44465;53.206;-6.106;2023-06-22T03:49:43;2.67;;;2.33;;
58685;SDS011;44465;53.206;-6.106;2023-06-22T03:52:08;5.18;;;2.65;;
58685;SDS011;44465;53.206;-6.106;2023-06-22T03:54:36;2.30;;;1.95;;
58685;SDS011;44465;53.206;-6.106;2023-06-22T03:57:01;2.72;;;1.88;;
58685;SDS011;44465;53.206;-6.106;2023-06-22T03:59:27;2.25;;;2.05;;
58685;SDS011;44465;53.206;-6.106;2023-06-22T04:01:52;1.73;;;1.55;;
58685;SDS011;44465;53.206;-6.106;2023-06-22T04:04:18;3.22;;;1.98;;
58685;SDS011;44465;53.206;-6.106;2023-06-22T04:06:44;1.83;;;1.67;;
58685;SDS011;44465;53.206;-6.106;2023-06-22T04:09:09;2.03;;;1.83;;
58685;SDS011;44465;53.206;-6.106;2023-06-22T04:11:35;3.67;;;2.10;;
58685;SDS011;44465;53.206;-6.106;2023-06-22T04:14:00;2.22;;;1.92;;
58685;SDS011;44465;53.206;-6.106;2023-06-22T04:16:25;2.10;;;1.90;;
58685;SDS011;44465;53.206;-6.106;2023-06-22T04:18:51;2.28;;;1.83;;
58685;SDS011;44465;53.206;-6.106;2023-06-22T04:21:17;2.10;;;1.63;;
58685;SDS011;44465;53.206;-6.106;2023-06-22T04:23:44;2.55;;;1.80;;
58685;SDS011;44465;53.206;-6.106;2023-06-22T04:26:11;2.25;;;2.00;;
58685;SDS011;44465;53.206;-6.106;2023-06-22T04:28:37;3.65;;;1.75;;
58685;SDS011;44465;53.206;-6.106;2023-06-22T04:31:02;2.45;;;2.25;;
58685;SDS011;44465;53.206;-6.106;2023-06-22T04:33:28;2.00;;;1.90;;
58685;SDS011;44465;53.206;-6.106;2023-06-22T04:35:57;1.70;;;1.50;;
58685;SDS011;44465;53.206;-6.106;2023-06-22T04:38:26;2.22;;;1.73;;
58685;SDS011;44465;53.206;-6.106;2023-06-22T04:40:52;1.80;;;1.70;;
58685;SDS011;44465;53.206;-6.106;2023-06-22T04:43:18;2.08;;;1.88;;
58685;SDS011;44465;53.206;-6.106;2023-06-22T04:45:44;2.78;;;2.05;;
58685;SDS011;44465;53.206;-6.106;2023-06-22T04:48:10;2.05;;;1.80;;
58685;SDS011;44465;53.206;-6.106;2023-06-22T04:50:38;2.08;;;1.92;;
58685;SDS011;44465;53.206;-6.106;2023-06-22T04:53:04;1.80;;;1.70;;
58685;SDS011;44465;53.206;-6.106;2023-06-22T04:55:31;3.27;;;1.90;;
58685;SDS011;44465;53.206;-6.106;2023-06-22T04:57:57;2.78;;;1.77;;
58685;SDS011;44465;53.206;-6.106;2023-06-22T05:00:29;4.75;;;2.00;;
58685;SDS011;44465;53.206;-6.106;2023-06-22T05:02:55;1.80;;;1.67;;
58685;SDS011;44465;53.206;-6.106;2023-06-22T05:05:23;1.73;;;1.63;;
58685;SDS011;44465;53.206;-6.106;2023-06-22T05:07:49;3.83;;;2.10;;
58685;SDS011;44465;53.206;-6.106;2023-06-22T05:10:18;2.00;;;1.73;;
58685;SDS011;44465;53.206;-6.106;2023-06-22T05:12:45;1.83;;;1.73;;
58685;SDS011;44465;53.206;-6.106;2023-06-22T05:15:11;2.15;;;1.95;;
58685;SDS011;44465;53.206;-6.106;2023-06-22T05:17:37;1.85;;;1.75;;
58685;SDS011;44465;53.206;-6.106;2023-06-22T05:20:11;2.13;;;1.92;;
58685;SDS011;44465;53.206;-6.106;2023-06-22T05:22:37;2.42;;;1.80;;
58685;SDS011;44465;53.206;-6.106;2023-06-22T05:25:05;1.83;;;1.73;;
58685;SDS011;44465;53.206;-6.106;2023-06-22T05:27:33;2.28;;;1.70;;
58685;SDS011;44465;53.206;-6.106;2023-06-22T05:29:58;2.03;;;1.80;;
58685;SDS011;44465;53.206;-6.106;2023-06-22T05:32:24;3.35;;;2.13;;
58685;SDS011;44465;53.206;-6.106;2023-06-22T05:34:49;1.83;;;1.73;;
58685;SDS011;44465;53.206;-6.106;2023-06-22T05:37:15;2.17;;;1.98;;
58685;SDS011;44465;53.206;-6.106;2023-06-22T05:39:40;1.63;;;1.52;;
58685;SDS011;44465;53.206;-6.106;2023-06-22T05:42:06;2.08;;;1.80;;
58685;SDS011;44465;53.206;-6.106;2023-06-22T05:44:33;2.15;;;1.98;;
58685;SDS011;44465;53.206;-6.106;2023-06-22T05:46:58;2.00;;;1.90;;
58685;SDS011;44465;53.206;-6.106;2023-06-22T05:49:24;2.30;;;2.10;;
58685;SDS011;44465;53.206;-6.106;2023-06-22T05:51:54;2.05;;;1.80;;
58685;SDS011;44465;53.206;-6.106;2023-06-22T05:54:20;2.85;;;1.90;;
58685;SDS011;44465;53.206;-6.106;2023-06-22T05:56:46;2.88;;;1.92;;
58685;SDS011;44465;53.206;-6.106;2023-06-22T05:59:11;2.33;;;1.90;;
58685;SDS011;44465;53.206;-6.106;2023-06-22T06:01:37;1.88;;;1.58;;
58685;SDS011;44465;53.206;-6.106;2023-06-22T06:04:03;2.28;;;2.08;;
58685;SDS011;44465;53.206;-6.106;2023-06-22T06:06:35;2.40;;;1.90;;
58685;SDS011;44465;53.206;-6.106;2023-06-22T06:09:05;2.15;;;1.80;;
58685;SDS011;44465;53.206;-6.106;2023-06-22T06:11:30;2.15;;;1.80;;
58685;SDS011;44465;53.206;-6.106;2023-06-22T06:13:56;2.00;;;1.90;;
58685;SDS011;44465;53.206;-6.106;2023-06-22T06:16:22;1.95;;;1.85;;
58685;SDS011;44465;53.206;-6.106;2023-06-22T06:18:47;1.73;;;1.60;;
58685;SDS011;44465;53.206;-6.106;2023-06-22T06:21:17;2.00;;;1.90;;
58685;SDS011;44465;53.206;-6.106;2023-06-22T06:23:42;2.30;;;2.10;;
58685;SDS011;44465;53.206;-6.106;2023-06-22T06:26:08;1.80;;;1.70;;
58685;SDS011;44465;53.206;-6.106;2023-06-22T06:28:34;2.28;;;1.80;;
58685;SDS011;44465;53.206;-6.106;2023-06-22T06:31:00;2.53;;;2.13;;
58685;SDS011;44465;53.206;-6.106;2023-06-22T06:33:25;2.90;;;2.10;;
58685;SDS011;44465;53.206;-6.106;2023-06-22T06:35:51;2.85;;;2.17;;
58685;SDS011;44465;53.206;-6.106;2023-06-22T06:38:17;2.03;;;1.90;;
58685;SDS011;44465;53.206;-6.106;2023-06-22T06:40:42;2.13;;;1.90;;
58685;SDS011;44465;53.206;-6.106;2023-06-22T06:43:09;2.15;;;1.95;;
58685;SDS011;44465;53.206;-6.106;2023-06-22T06:45:34;2.92;;;2.13;;
58685;SDS011;44465;53.206;-6.106;2023-06-22T06:48:00;1.83;;;1.73;;
58685;SDS011;44465;53.206;-6.106;2023-06-22T06:50:25;2.30;;;2.10;;
58685;SDS011;44465;53.206;-6.106;2023-06-22T06:52:51;2.20;;;2.00;;
58685;SDS011;44465;53.206;-6.106;2023-06-22T06:55:17;2.55;;;1.98;;
58685;SDS011;44465;53.206;-6.106;2023-06-22T06:57:43;2.38;;;2.17;;
58685;SDS011;44465;53.206;-6.106;2023-06-22T07:00:11;2.05;;;1.88;;
58685;SDS011;44465;53.206;-6.106;2023-06-22T07:02:42;3.28;;;1.92;;
58685;SDS011;44465;53.206;-6.106;2023-06-22T07:05:09;2.22;;;2.00;;
58685;SDS011;44465;53.206;-6.106;2023-06-22T07:07:36;2.38;;;2.17;;
58685;SDS011;44465;53.206;-6.106;2023-06-22T07:10:02;1.98;;;1.80;;
58685;SDS011;44465;53.206;-6.106;2023-06-22T07:12:28;2.00;;;1.90;;
58685;SDS011;44465;53.206;-6.106;2023-06-22T07:14:53;2.15;;;2.05;;
58685;SDS011;44465;53.206;-6.106;2023-06-22T07:17:19;2.42;;;2.20;;
58685;SDS011;44465;53.206;-6.106;2023-06-22T07:19:45;2.42;;;2.22;;
58685;SDS011;44465;53.206;-6.106;2023-06-22T07:22:10;2.20;;;2.03;;
58685;SDS011;44465;53.206;-6.106;2023-06-22T07:24:36;2.92;;;2.30;;
58685;SDS011;44465;53.206;-6.106;2023-06-22T07:27:02;2.85;;;1.92;;
58685;SDS011;44465;53.206;-6.106;2023-06-22T07:29:28;2.07;;;1.90;;
58685;SDS011;44465;53.206;-6.106;2023-06-22T07:31:54;2.60;;;2.40;;
58685;SDS011;44465;53.206;-6.106;2023-06-22T07:34:21;2.92;;;1.90;;
58685;SDS011;44465;53.206;-6.106;2023-06-22T07:36:47;2.28;;;2.08;;
58685;SDS011;44465;53.206;-6.106;2023-06-22T07:39:13;2.67;;;2.20;;
58685;SDS011;44465;53.206;-6.106;2023-06-22T07:41:39;2.65;;;2.45;;
58685;SDS011;44465;53.206;-6.106;2023-06-22T07:44:08;2.42;;;2.22;;
58685;SDS011;44465;53.206;-6.106;2023-06-22T07:46:34;4.28;;;2.30;;
58685;SDS011;44465;53.206;-6.106;2023-06-22T07:48:59;7.38;;;2.22;;
58685;SDS011;44465;53.206;-6.106;2023-06-22T07:51:26;2.50;;;2.00;;
58685;SDS011;44465;53.206;-6.106;2023-06-22T07:53:52;2.85;;;2.20;;
58685;SDS011;44465;53.206;-6.106;2023-06-22T07:56:17;8.48;;;3.00;;
58685;SDS011;44465;53.206;-6.106;2023-06-22T07:58:45;13.10;;;3.67;;
58685;SDS011;44465;53.206;-6.106;2023-06-22T08:01:11;3.30;;;2.33;;
58685;SDS011;44465;53.206;-6.106;2023-06-22T08:03:37;4.50;;;2.40;;
58685;SDS011;44465;53.206;-6.106;2023-06-22T08:06:02;3.17;;;2.70;;
58685;SDS011;44465;53.206;-6.106;2023-06-22T08:08:28;3.85;;;2.47;;
58685;SDS011;44465;53.206;-6.106;2023-06-22T08:10:54;2.63;;;2.30;;
58685;SDS011;44465;53.206;-6.106;2023-06-22T08:13:19;13.90;;;4.25;;
58685;SDS011;44465;53.206;-6.106;2023-06-22T08:15:45;6.60;;;4.10;;
58685;SDS011;44465;53.206;-6.106;2023-06-22T08:18:10;5.05;;;3.40;;
58685;SDS011;44465;53.206;-6.106;2023-06-22T08:20:36;4.63;;;3.63;;
58685;SDS011;44465;53.206;-6.106;2023-06-22T08:23:01;7.63;;;3.33;;
58685;SDS011;44465;53.206;-6.106;2023-06-22T08:25:32;4.28;;;3.47;;
58685;SDS011;44465;53.206;-6.106;2023-06-22T08:27:59;6.88;;;3.25;;
58685;SDS011;44465;53.206;-6.106;2023-06-22T08:30:25;5.35;;;3.58;;
58685;SDS011;44465;53.206;-6.106;2023-06-22T08:32:50;5.47;;;3.00;;
58685;SDS011;44465;53.206;-6.106;2023-06-22T08:35:16;6.97;;;3.78;;
58685;SDS011;44465;53.206;-6.106;2023-06-22T08:37:41;5.72;;;3.60;;
58685;SDS011;44465;53.206;-6.106;2023-06-22T08:40:08;11.95;;;4.03;;
58685;SDS011;44465;53.206;-6.106;2023-06-22T08:42:35;4.65;;;3.22;;
58685;SDS011;44465;53.206;-6.106;2023-06-22T08:45:01;6.85;;;3.90;;
58685;SDS011;44465;53.206;-6.106;2023-06-22T08:47:27;9.63;;;3.55;;
58685;SDS011;44465;53.206;-6.106;2023-06-22T08:49:53;8.57;;;4.00;;
58685;SDS011;44465;53.206;-6.106;2023-06-22T08:52:19;6.07;;;3.60;;
58685;SDS011;44465;53.206;-6.106;2023-06-22T08:54:45;5.85;;;3.60;;
58685;SDS011;44465;53.206;-6.106;2023-06-22T08:57:12;6.68;;;3.38;;
58685;SDS011;44465;53.206;-6.106;2023-06-22T08:59:37;7.25;;;3.50;;
58685;SDS011;44465;53.206;-6.106;2023-06-22T09:02:03;5.95;;;3.30;;
58685;SDS011;44465;53.206;-6.106;2023-06-22T09:04:28;3.95;;;3.13;;
58685;SDS011;44465;53.206;-6.106;2023-06-22T09:06:54;6.75;;;3.78;;
58685;SDS011;44465;53.206;-6.106;2023-06-22T09:09:21;5.82;;;3.67;;
58685;SDS011;44465;53.206;-6.106;2023-06-22T09:11:47;5.95;;;3.38;;
58685;SDS011;44465;53.206;-6.106;2023-06-22T09:14:12;3.83;;;3.17;;
58685;SDS011;44465;53.206;-6.106;2023-06-22T09:16:38;5.65;;;3.72;;
58685;SDS011;44465;53.206;-6.106;2023-06-22T09:19:03;4.95;;;3.65;;
58685;SDS011;44465;53.206;-6.106;2023-06-22T09:21:29;6.28;;;3.72;;
58685;SDS011;44465;53.206;-6.106;2023-06-22T09:23:54;6.15;;;3.55;;
58685;SDS011;44465;53.206;-6.106;2023-06-22T09:26:20;5.07;;;3.72;;
58685;SDS011;44465;53.206;-6.106;2023-06-22T09:28:46;5.50;;;3.70;;
58685;SDS011;44465;53.206;-6.106;2023-06-22T09:31:12;6.38;;;3.40;;
58685;SDS011;44465;53.206;-6.106;2023-06-22T09:33:39;5.80;;;3.67;;
58685;SDS011;44465;53.206;-6.106;2023-06-22T09:36:05;5.82;;;3.30;;
58685;SDS011;44465;53.206;-6.106;2023-06-22T09:38:38;4.22;;;3.55;;
58685;SDS011;44465;53.206;-6.106;2023-06-22T09:41:04;4.10;;;3.30;;
58685;SDS011;44465;53.206;-6.106;2023-06-22T09:43:31;4.50;;;3.78;;
58685;SDS011;44465;53.206;-6.106;2023-06-22T09:46:00;5.25;;;3.80;;
58685;SDS011;44465;53.206;-6.106;2023-06-22T09:48:26;3.97;;;3.08;;
58685;SDS011;44465;53.206;-6.106;2023-06-22T09:50:52;4.88;;;3.47;;
58685;SDS011;44465;53.206;-6.106;2023-06-22T09:53:17;4.03;;;3.42;;
58685;SDS011;44465;53.206;-6.106;2023-06-22T09:55:43;4.97;;;3.95;;
58685;SDS011;44465;53.206;-6.106;2023-06-22T09:58:08;4.82;;;3.42;;
58685;SDS011;44465;53.206;-6.106;2023-06-22T10:00:34;4.28;;;3.33;;
58685;SDS011;44465;53.206;-6.106;2023-06-22T10:03:00;5.00;;;3.55;;
58685;SDS011;44465;53.206;-6.106;2023-06-22T10:05:25;4.15;;;3.63;;
58685;SDS011;44465;53.206;-6.106;2023-06-22T10:07:51;4.07;;;3.50;;
58685;SDS011;44465;53.206;-6.106;2023-06-22T10:10:16;5.40;;;3.85;;
58685;SDS011;44465;53.206;-6.106;2023-06-22T10:12:43;3.50;;;3.20;;
58685;SDS011;44465;53.206;-6.106;2023-06-22T10:15:11;7.10;;;3.92;;
58685;SDS011;44465;53.206;-6.106;2023-06-22T10:17:36;3.70;;;3.33;;
58685;SDS011;44465;53.206;-6.106;2023-06-22T10:20:02;3.63;;;3.33;;
58685;SDS011;44465;53.206;-6.106;2023-06-22T10:22:37;5.25;;;3.80;;
58685;SDS011;44465;53.206;-6.106;2023-06-22T10:25:04;5.65;;;3.60;;
58685;SDS011;44465;53.206;-6.106;2023-06-22T10:27:29;3.83;;;3.53;;
58685;SDS011;44465;53.206;-6.106;2023-06-22T10:29:56;5.40;;;3.63;;
58685;SDS011;44465;53.206;-6.106;2023-06-22T10:32:22;5.78;;;3.78;;
58685;SDS011;44465;53.206;-6.106;2023-06-22T10:34:47;5.55;;;3.70;;
58685;SDS011;44465;53.206;-6.106;2023-06-22T10:37:13;4.57;;;3.60;;
58685;SDS011;44465;53.206;-6.106;2023-06-22T10:39:38;4.90;;;3.63;;
58685;SDS011;44465;53.206;-6.106;2023-06-22T10:42:04;4.40;;;3.75;;
58685;SDS011;44465;53.206;-6.106;2023-06-22T10:44:29;3.47;;;3.15;;
58685;SDS011;44465;53.206;-6.106;2023-06-22T10:46:55;6.80;;;3.53;;
58685;SDS011;44465;53.206;-6.106;2023-06-22T10:49:20;4.60;;;3.30;;
58685;SDS011;44465;53.206;-6.106;2023-06-22T10:51:46;3.85;;;3.42;;
58685;SDS011;44465;53.206;-6.106;2023-06-22T10:54:11;7.53;;;4.13;;
58685;SDS011;44465;53.206;-6.106;2023-06-22T10:56:39;4.07;;;3.53;;
58685;SDS011;44465;53.206;-6.106;2023-06-22T10:59:05;3.67;;;3.38;;
58685;SDS011;44465;53.206;-6.106;2023-06-22T11:01:30;4.05;;;3.35;;
58685;SDS011;44465;53.206;-6.106;2023-06-22T11:03:56;4.75;;;3.35;;
58685;SDS011;44465;53.206;-6.106;2023-06-22T11:06:22;5.10;;;3.45;;
58685;SDS011;44465;53.206;-6.106;2023-06-22T11:08:48;4.65;;;3.80;;
58685;SDS011;44465;53.206;-6.106;2023-06-22T11:11:13;5.43;;;3.70;;
58685;SDS011;44465;53.206;-6.106;2023-06-22T11:13:39;3.67;;;3.20;;
58685;SDS011;44465;53.206;-6.106;2023-06-22T11:16:04;3.88;;;3.30;;
58685;SDS011;44465;53.206;-6.106;2023-06-22T11:18:30;3.70;;;3.40;;
58685;SDS011;44465;53.206;-6.106;2023-06-22T11:20:58;4.53;;;3.38;;
58685;SDS011;44465;53.206;-6.106;2023-06-22T11:23:24;3.33;;;2.97;;
58685;SDS011;44465;53.206;-6.106;2023-06-22T11:25:51;5.20;;;3.33;;
58685;SDS011;44465;53.206;-6.106;2023-06-22T11:28:16;5.40;;;3.40;;
58685;SDS011;44465;53.206;-6.106;2023-06-22T11:30:42;3.97;;;3.25;;
58685;SDS011;44465;53.206;-6.106;2023-06-22T11:33:07;4.25;;;3.35;;
58685;SDS011;44465;53.206;-6.106;2023-06-22T11:35:33;3.70;;;3.35;;
58685;SDS011;44465;53.206;-6.106;2023-06-22T11:37:58;5.13;;;3.50;;
58685;SDS011;44465;53.206;-6.106;2023-06-22T11:40:24;4.28;;;3.53;;
58685;SDS011;44465;53.206;-6.106;2023-06-22T11:42:49;5.32;;;3.08;;
58685;SDS011;44465;53.206;-6.106;2023-06-22T11:45:15;3.90;;;3.50;;
58685;SDS011;44465;53.206;-6.106;2023-06-22T11:47:42;4.22;;;3.03;;
58685;SDS011;44465;53.206;-6.106;2023-06-22T11:50:08;4.00;;;2.92;;
58685;SDS011;44465;53.206;-6.106;2023-06-22T11:52:34;3.58;;;2.92;;
58685;SDS011;44465;53.206;-6.106;2023-06-22T11:55:01;7.05;;;2.85;;
58685;SDS011;44465;53.206;-6.106;2023-06-22T11:57:29;5.05;;;3.40;;
58685;SDS011;44465;53.206;-6.106;2023-06-22T11:59:55;7.13;;;3.53;;
58685;SDS011;44465;53.206;-6.106;2023-06-22T12:02:20;5.60;;;3.40;;
58685;SDS011;44465;53.206;-6.106;2023-06-22T12:04:46;4.40;;;3.30;;
58685;SDS011;44465;53.206;-6.106;2023-06-22T12:07:11;14.27;;;4.55;;
58685;SDS011;44465;53.206;-6.106;2023-06-22T12:09:37;10.27;;;5.20;;
58685;SDS011;44465;53.206;-6.106;2023-06-22T12:12:03;7.90;;;4.57;;
58685;SDS011;44465;53.206;-6.106;2023-06-22T12:14:29;8.75;;;4.38;;
58685;SDS011;44465;53.206;-6.106;2023-06-22T12:16:54;7.25;;;4.38;;
58685;SDS011;44465;53.206;-6.106;2023-06-22T12:19:19;7.25;;;3.95;;
58685;SDS011;44465;53.206;-6.106;2023-06-22T12:21:45;5.60;;;4.10;;
58685;SDS011;44465;53.206;-6.106;2023-06-22T12:24:11;5.82;;;3.70;;
58685;SDS011;44465;53.206;-6.106;2023-06-22T12:26:36;6.22;;;3.80;;
58685;SDS011;44465;53.206;-6.106;2023-06-22T12:29:02;6.95;;;3.75;;
58685;SDS011;44465;53.206;-6.106;2023-06-22T12:31:27;5.25;;;3.55;;
58685;SDS011;44465;53.206;-6.106;2023-06-22T12:33:53;4.35;;;3.33;;
58685;SDS011;44465;53.206;-6.106;2023-06-22T12:36:18;5.07;;;3.28;;
58685;SDS011;44465;53.206;-6.106;2023-06-22T12:38:44;6.72;;;3.78;;
58685;SDS011;44465;53.206;-6.106;2023-06-22T12:41:09;4.05;;;2.83;;
58685;SDS011;44465;53.206;-6.106;2023-06-22T12:43:34;5.32;;;3.05;;
58685;SDS011;44465;53.206;-6.106;2023-06-22T12:46:00;3.90;;;3.00;;
58685;SDS011;44465;53.206;-6.106;2023-06-22T12:48:26;3.58;;;2.92;;
58685;SDS011;44465;53.206;-6.106;2023-06-22T12:50:52;4.70;;;2.43;;
58685;SDS011;44465;53.206;-6.106;2023-06-22T12:53:17;6.10;;;2.53;;
58685;SDS011;44465;53.206;-6.106;2023-06-22T12:55:43;5.00;;;2.50;;
58685;SDS011;44465;53.206;-6.106;2023-06-22T12:58:09;3.45;;;2.50;;
58685;SDS011;44465;53.206;-6.106;2023-06-22T13:00:34;5.15;;;2.80;;
58685;SDS011;44465;53.206;-6.106;2023-06-22T13:03:00;6.15;;;2.90;;
58685;SDS011;44465;53.206;-6.106;2023-06-22T13:05:25;3.22;;;2.30;;
58685;SDS011;44465;53.206;-6.106;2023-06-22T13:07:51;3.15;;;2.45;;
58685;SDS011;44465;53.206;-6.106;2023-06-22T13:10:16;4.25;;;2.35;;
58685;SDS011;44465;53.206;-6.106;2023-06-22T13:12:41;3.28;;;2.35;;
58685;SDS011;44465;53.206;-6.106;2023-06-22T13:15:07;4.50;;;2.50;;
58685;SDS011;44465;53.206;-6.106;2023-06-22T13:17:33;2.55;;;2.35;;
58685;SDS011;44465;53.206;-6.106;2023-06-22T13:19:58;4.50;;;2.00;;
58685;SDS011;44465;53.206;-6.106;2023-06-22T13:22:28;2.20;;;2.00;;
58685;SDS011;44465;53.206;-6.106;2023-06-22T13:24:55;4.20;;;2.40;;
58685;SDS011;44465;53.206;-6.106;2023-06-22T13:27:21;3.05;;;2.20;;
58685;SDS011;44465;53.206;-6.106;2023-06-22T13:29:46;3.47;;;1.90;;
58685;SDS011;44465;53.206;-6.106;2023-06-22T13:32:12;4.45;;;1.80;;
58685;SDS011;44465;53.206;-6.106;2023-06-22T13:34:37;2.08;;;1.98;;
58685;SDS011;44465;53.206;-6.106;2023-06-22T13:37:03;2.08;;;1.70;;
58685;SDS011;44465;53.206;-6.106;2023-06-22T13:39:29;1.88;;;1.65;;
58685;SDS011;44465;53.206;-6.106;2023-06-22T13:41:55;1.77;;;1.67;;
58685;SDS011;44465;53.206;-6.106;2023-06-22T13:44:21;2.15;;;1.60;;
58685;SDS011;44465;53.206;-6.106;2023-06-22T13:46:47;4.75;;;1.90;;
58685;SDS011;44465;53.206;-6.106;2023-06-22T13:49:12;1.63;;;1.52;;
58685;SDS011;44465;53.206;-6.106;2023-06-22T13:51:38;1.85;;;1.73;;
58685;SDS011;44465;53.206;-6.106;2023-06-22T13:54:03;3.15;;;1.50;;
58685;SDS011;44465;53.206;-6.106;2023-06-22T13:56:29;1.70;;;1.60;;
58685;SDS011;44465;53.206;-6.106;2023-06-22T13:58:54;1.70;;;1.60;;
58685;SDS011;44465;53.206;-6.106;2023-06-22T14:01:20;1.70;;;1.50;;
58685;SDS011;44465;53.206;-6.106;2023-06-22T14:03:46;2.67;;;1.73;;
58685;SDS011;44465;53.206;-6.106;2023-06-22T14:06:13;1.90;;;1.80;;
58685;SDS011;44465;53.206;-6.106;2023-06-22T14:08:38;1.92;;;1.58;;
58685;SDS011;44465;53.206;-6.106;2023-06-22T14:11:04;2.03;;;1.67;;
58685;SDS011;44465;53.206;-6.106;2023-06-22T14:13:29;1.85;;;1.65;;
58685;SDS011;44465;53.206;-6.106;2023-06-22T14:15:55;2.38;;;2.03;;
58685;SDS011;44465;53.206;-6.106;2023-06-22T14:18:20;3.03;;;1.75;;
58685;SDS011;44465;53.206;-6.106;2023-06-22T14:20:47;2.47;;;1.40;;
58685;SDS011;44465;53.206;-6.106;2023-06-22T14:23:13;1.95;;;1.80;;
58685;SDS011;44465;53.206;-6.106;2023-06-22T14:25:39;1.55;;;1.30;;
58685;SDS011;44465;53.206;-6.106;2023-06-22T14:28:05;1.65;;;1.42;;
58685;SDS011;44465;53.206;-6.106;2023-06-22T14:30:31;1.50;;;1.40;;
58685;SDS011;44465;53.206;-6.106;2023-06-22T14:32:56;1.67;;;1.50;;
58685;SDS011;44465;53.206;-6.106;2023-06-22T14:35:22;2.35;;;1.42;;
58685;SDS011;44465;53.206;-6.106;2023-06-22T14:37:49;1.98;;;1.40;;
58685;SDS011;44465;53.206;-6.106;2023-06-22T14:40:15;3.33;;;1.40;;
58685;SDS011;44465;53.206;-6.106;2023-06-22T14:42:40;1.30;;;1.30;;